Delta Virtual Airport Information Service

Vancouver International Airport

ICAO: CYVR Country: Canada
Latitude: 49.1939 Longitude: -123.184
Latest Arrival : ANZ1954 (B) (NZAA-CYVR) Latest Departure : ANZ23 (1) (CYVR-NZAA)


WX CaptureLIVE
Data provided by noaa.gov | Fetched at 13:18:04

METAR : CYVR 281800Z 31005KT 300V030 4SM -RA BR BKN007 OVC015 08/08 A2997 RMK CU7SC1 SLP151

TAF : CYVR 281739Z 2818/2924 10006KT P6SM -RA SCT005 OVC020 TEMPO 2818/2902 3SM RA BR BKN005 BECMG 2823/2901 29010KT FM290200 29012KT P6SM SCT006 OVC030 TEMPO 2902/2907 3SM -RA BR BKN006 FM290700 29015KT P6SM SCT012 BKN030 TEMPO 2907/2915 SCT008 BKN012 BECMG 2909/2911 29018G28KT FM291500 29018G28KT P6SM SCT020 TEMPO 2915/2920 BKN020 FM292000 29012KT P6SM SCT030 RMK NXT FCST BY 282100Z


Runway Data for CYVR
Data provided by openaviationdata.com

Runway ID Mag Var Hdg Length Elevation Surface ILS Freq ILS Id ILS Slope
08L 19 81° 9918 ft 14 ft Concrete 110.55 ITL 3
08R 19 80° 11962 ft 14 ft Asphalt 109.5 IVR 3
12 19 122° 7290 ft 14 ft Asphalt 111.1 IMK 3
26L 19 260° 11962 ft 14 ft Asphalt 110.7 IFZ 3
26R 19 261° 9918 ft 14 ft Concrete 111.95 IRD 3
30 19 302° 7290 ft 14 ft Asphalt -- -- --

Vancouver International Airport, Canada
Use only for reference purposes



Not for navigational purposes.